createdAt,value
2023-02-20T00:00:42.277Z,48.40
2023-02-20T00:03:15.707Z,48.50
2023-02-20T00:05:48.943Z,48.60
2023-02-20T00:08:23.074Z,48.70
2023-02-20T00:10:56.225Z,48.50
2023-02-20T00:13:30.701Z,48.50
2023-02-20T00:16:03.887Z,48.70
2023-02-20T00:18:37.039Z,48.50
2023-02-20T00:21:10.137Z,48.60
2023-02-20T00:23:43.236Z,48.60
2023-02-20T00:26:16.500Z,48.60
2023-02-20T00:28:51.176Z,48.60
2023-02-20T00:31:24.513Z,48.70
2023-02-20T00:33:57.627Z,48.70
2023-02-20T00:36:30.748Z,48.60
2023-02-20T00:39:03.917Z,48.70
2023-02-20T00:41:37.009Z,48.60
2023-02-20T00:44:11.485Z,48.70
2023-02-20T00:46:44.673Z,48.70
2023-02-20T00:49:19.205Z,48.70
2023-02-20T00:51:52.293Z,48.60
2023-02-20T00:54:25.325Z,48.80
2023-02-20T00:56:58.421Z,48.80
2023-02-20T00:59:32.901Z,48.70
2023-02-20T01:02:06.059Z,48.80
2023-02-20T01:04:41.552Z,48.80
2023-02-20T01:07:16.488Z,48.80
2023-02-20T01:09:49.561Z,48.80
2023-02-20T01:12:23.869Z,48.70
2023-02-20T01:14:58.736Z,48.70
2023-02-20T01:17:34.917Z,48.70
2023-02-20T01:20:09.604Z,48.80
2023-02-20T01:22:43.073Z,48.80
2023-02-20T01:25:16.970Z,48.70
2023-02-20T01:27:51.016Z,48.80
2023-02-20T01:30:25.520Z,49.00
2023-02-20T01:32:58.645Z,49.00
2023-02-20T01:35:33.295Z,48.90
2023-02-20T01:38:06.778Z,48.80
2023-02-20T01:40:39.859Z,48.70
2023-02-20T01:43:13.022Z,48.50
2023-02-20T01:45:47.539Z,48.50
2023-02-20T01:48:21.550Z,48.50
2023-02-20T01:50:58.980Z,48.50
2023-02-20T01:53:32.406Z,48.40
2023-02-20T01:56:08.137Z,48.30
2023-02-20T01:58:42.974Z,48.30
2023-02-20T02:01:17.753Z,48.20
2023-02-20T02:03:55.687Z,48.20
2023-02-20T02:06:29.718Z,48.20
2023-02-20T02:09:05.096Z,48.40
2023-02-20T02:11:38.185Z,48.40
2023-02-20T02:14:11.305Z,48.40
2023-02-20T02:16:51.624Z,48.40
2023-02-20T02:19:34.812Z,48.40
2023-02-20T02:22:21.896Z,48.60
2023-02-20T02:25:14.525Z,48.50
2023-02-20T02:28:01.601Z,48.40
2023-02-20T02:30:49.671Z,48.50
2023-02-20T02:33:40.524Z,48.50
2023-02-20T02:36:29.612Z,48.60
2023-02-20T02:39:04.773Z,48.70
2023-02-20T02:41:43.720Z,48.60
2023-02-20T02:44:17.668Z,48.60
2023-02-20T02:46:56.304Z,48.70
2023-02-20T02:49:32.801Z,48.90
2023-02-20T02:52:10.832Z,48.80
2023-02-20T02:54:43.936Z,48.80
2023-02-20T02:57:19.758Z,48.70
2023-02-20T02:59:55.906Z,48.70
2023-02-20T03:02:32.659Z,48.90
2023-02-20T03:05:07.200Z,48.60
2023-02-20T03:07:42.262Z,48.70
2023-02-20T03:10:20.648Z,48.80
2023-02-20T03:12:55.131Z,48.60
2023-02-20T03:15:32.353Z,48.70
2023-02-20T03:18:12.006Z,48.70
2023-02-20T03:20:46.759Z,48.70
2023-02-20T03:23:23.297Z,48.70
2023-02-20T03:25:57.486Z,48.70
2023-02-20T03:28:32.492Z,48.70
2023-02-20T03:31:07.435Z,48.80
2023-02-20T03:34:02.018Z,48.90
2023-02-20T03:36:56.017Z,48.90
2023-02-20T03:39:50.361Z,48.90
2023-02-20T03:42:41.508Z,48.90
2023-02-20T03:45:25.490Z,49.00
2023-02-20T03:48:00.953Z,48.90
2023-02-20T03:50:36.297Z,49.00
2023-02-20T03:53:09.882Z,49.10
2023-02-20T03:55:44.920Z,49.10
2023-02-20T03:58:22.692Z,49.00
2023-02-20T04:00:59.381Z,48.90
2023-02-20T04:03:34.374Z,48.90
2023-02-20T04:06:08.506Z,49.00
2023-02-20T04:08:45.343Z,49.00
2023-02-20T04:11:23.142Z,49.10
2023-02-20T04:13:56.727Z,49.20
2023-02-20T04:16:30.769Z,49.20
2023-02-20T04:19:04.807Z,49.40
2023-02-20T04:21:40.298Z,49.60
2023-02-20T04:24:17.153Z,49.60
2023-02-20T04:26:52.100Z,49.60
2023-02-20T04:29:25.306Z,49.70
2023-02-20T04:31:59.184Z,49.80
2023-02-20T04:34:37.868Z,49.80
2023-02-20T04:37:15.020Z,50.00
2023-02-20T04:39:49.225Z,49.90
2023-02-20T04:42:24.771Z,50.10
2023-02-20T04:44:58.588Z,50.00
2023-02-20T04:47:31.716Z,49.90
2023-02-20T04:50:05.441Z,50.00
2023-02-20T04:52:38.574Z,50.10
2023-02-20T04:55:11.779Z,50.00
2023-02-20T04:57:46.243Z,50.00
2023-02-20T05:00:20.440Z,49.90
2023-02-20T05:02:53.822Z,50.00
2023-02-20T05:05:27.852Z,50.20
2023-02-20T05:08:01.954Z,50.30
2023-02-20T05:10:35.919Z,50.30
2023-02-20T05:13:10.384Z,50.30
2023-02-20T05:15:43.506Z,50.30
2023-02-20T05:18:24.895Z,50.30
2023-02-20T05:21:15.297Z,50.00
2023-02-20T05:23:48.588Z,50.20
2023-02-20T05:26:22.439Z,50.20
2023-02-20T05:28:56.886Z,50.20
2023-02-20T05:31:30.146Z,50.30
2023-02-20T05:34:03.317Z,50.20
2023-02-20T05:36:36.453Z,50.20
2023-02-20T05:39:09.537Z,50.10
2023-02-20T05:41:42.640Z,50.20
2023-02-20T05:44:17.177Z,50.40
2023-02-20T05:46:50.366Z,50.60
2023-02-20T05:49:23.545Z,50.70
2023-02-20T05:51:57.327Z,50.30
2023-02-20T05:54:30.637Z,49.90
2023-02-20T05:57:03.748Z,49.50
2023-02-20T05:59:38.235Z,49.40
2023-02-20T06:02:11.319Z,49.30
2023-02-20T06:04:44.487Z,49.10
2023-02-20T06:07:17.798Z,49.70
2023-02-20T06:09:50.888Z,49.10
2023-02-20T06:12:24.023Z,49.10
2023-02-20T06:14:58.477Z,49.00
2023-02-20T06:17:32.940Z,48.80
2023-02-20T06:20:06.373Z,48.70
2023-02-20T06:22:39.453Z,48.50
2023-02-20T06:25:14.161Z,49.00
2023-02-20T06:27:47.350Z,48.40
2023-02-20T06:30:21.906Z,48.20
2023-02-20T06:32:55.009Z,48.20
2023-02-20T06:35:28.102Z,48.10
2023-02-20T06:38:01.549Z,48.10
2023-02-20T06:40:34.663Z,48.10
2023-02-20T06:43:07.851Z,48.00
2023-02-20T06:45:42.359Z,48.00
2023-02-20T06:48:16.040Z,47.80
2023-02-20T06:50:49.147Z,47.70
2023-02-20T06:53:22.289Z,47.60
2023-02-20T06:55:55.387Z,47.20
2023-02-20T06:58:28.513Z,47.40
2023-02-20T07:01:03.152Z,47.40
2023-02-20T07:03:37.151Z,47.40
2023-02-20T07:06:11.703Z,47.60
2023-02-20T07:08:45.143Z,47.60
2023-02-20T07:25:16.640Z,48.30
2023-02-20T07:27:49.990Z,48.60
2023-02-20T07:30:25.127Z,49.20
2023-02-20T07:32:58.296Z,49.50
2023-02-20T07:35:32.796Z,49.80
2023-02-20T07:38:10.958Z,49.40
2023-02-20T07:40:44.141Z,49.50
2023-02-20T07:43:17.389Z,49.20
2023-02-20T07:45:50.541Z,49.10
2023-02-20T07:48:23.708Z,49.20
2023-02-20T07:50:58.163Z,48.70
2023-02-20T07:53:31.274Z,48.60
2023-02-20T07:56:05.973Z,48.30
2023-02-20T07:58:39.069Z,48.20
2023-02-20T08:01:12.126Z,47.90
2023-02-20T08:03:45.195Z,47.70
2023-02-20T08:06:20.289Z,47.60
2023-02-20T08:08:53.384Z,47.30
2023-02-20T08:11:26.651Z,47.20
2023-02-20T08:13:59.711Z,47.20
2023-02-20T08:16:33.880Z,37.80
2023-02-20T08:19:07.162Z,34.00
2023-02-20T08:21:41.685Z,31.60
2023-02-20T08:24:14.826Z,31.20
2023-02-20T08:26:48.693Z,31.50
2023-02-20T08:29:21.810Z,33.60
2023-02-20T08:31:55.307Z,35.40
2023-02-20T08:34:28.558Z,34.70
2023-02-20T08:37:03.219Z,36.90
2023-02-20T08:39:36.479Z,36.70
2023-02-20T08:42:09.632Z,35.00
2023-02-20T08:44:42.889Z,37.00
2023-02-20T08:47:16.050Z,38.60
2023-02-20T08:49:49.316Z,38.40
2023-02-20T08:52:23.840Z,39.10
2023-02-20T08:54:57.025Z,39.00
2023-02-20T08:57:30.140Z,38.30
2023-02-20T09:00:03.401Z,38.30
2023-02-20T09:02:36.607Z,38.60
2023-02-20T09:05:10.059Z,39.10
2023-02-20T09:07:45.321Z,39.20
2023-02-20T09:10:19.111Z,39.40
2023-02-20T09:12:52.239Z,39.60
2023-02-20T09:15:26.114Z,40.00
2023-02-20T09:17:59.212Z,40.50
2023-02-20T09:20:32.337Z,40.30
2023-02-20T09:23:07.431Z,40.60
2023-02-20T09:25:40.527Z,40.40
2023-02-20T09:28:13.641Z,40.40
2023-02-20T09:30:46.870Z,40.60
2023-02-20T09:33:19.931Z,40.90
2023-02-20T09:35:54.744Z,41.10
2023-02-20T09:38:29.655Z,40.90
2023-02-20T09:41:02.738Z,41.20
2023-02-20T09:43:44.183Z,41.20
2023-02-20T09:46:18.153Z,41.00
2023-02-20T09:48:56.851Z,41.10
2023-02-20T09:51:32.017Z,41.00
2023-02-20T09:54:09.580Z,41.20
2023-02-20T09:56:50.400Z,41.30
2023-02-20T09:59:26.123Z,41.40
2023-02-20T10:02:01.399Z,41.50
2023-02-20T10:04:37.266Z,41.60
2023-02-20T10:07:14.901Z,41.60
2023-02-20T10:09:49.560Z,41.70
2023-02-20T10:12:25.163Z,41.40
2023-02-20T10:15:04.148Z,41.60
2023-02-20T10:17:41.386Z,41.70
2023-02-20T10:20:16.945Z,41.80
2023-02-20T10:22:53.380Z,41.80
2023-02-20T10:25:30.019Z,41.80
2023-02-20T10:28:05.464Z,41.90
2023-02-20T10:30:41.432Z,42.30
2023-02-20T10:33:22.320Z,42.50
2023-02-20T10:35:57.232Z,42.50
2023-02-20T10:38:35.190Z,42.60
2023-02-20T10:41:12.162Z,42.80
2023-02-20T10:43:48.328Z,42.80
2023-02-20T10:46:23.584Z,42.90
2023-02-20T10:48:57.982Z,42.90
2023-02-20T10:51:33.450Z,42.90
2023-02-20T10:54:09.979Z,42.90
2023-02-20T10:56:48.435Z,42.90
2023-02-20T10:59:24.471Z,42.90
2023-02-20T11:01:59.397Z,42.90
2023-02-20T11:04:35.652Z,42.80
2023-02-20T11:07:11.178Z,42.90
2023-02-20T11:09:44.262Z,42.90
2023-02-20T11:12:24.032Z,43.00
2023-02-20T11:14:58.313Z,43.00
2023-02-20T11:17:31.657Z,43.00
2023-02-20T11:20:06.661Z,43.00
2023-02-20T11:22:40.939Z,43.20
2023-02-20T11:25:16.340Z,43.20
2023-02-20T11:27:52.583Z,43.30
2023-02-20T11:30:29.401Z,43.50
2023-02-20T11:33:04.295Z,43.60
2023-02-20T11:35:39.999Z,43.60
2023-02-20T11:38:30.757Z,43.70
2023-02-20T11:41:17.241Z,43.70
2023-02-20T11:44:05.743Z,43.80
2023-02-20T11:46:38.897Z,43.80
2023-02-20T11:49:12.683Z,43.80
2023-02-20T11:51:46.353Z,43.90
2023-02-20T11:54:21.263Z,44.10
2023-02-20T11:56:59.661Z,44.20
2023-02-20T11:59:36.078Z,44.20
2023-02-20T12:02:13.542Z,44.40
2023-02-20T12:05:01.191Z,44.30
2023-02-20T12:07:35.902Z,44.40
2023-02-20T12:10:21.349Z,45.00
2023-02-20T12:12:55.123Z,44.40
2023-02-20T12:15:30.280Z,44.50
2023-02-20T12:18:25.774Z,44.50
2023-02-20T12:21:03.184Z,44.60
2023-02-20T12:23:40.575Z,44.60
2023-02-20T12:26:17.186Z,44.60
2023-02-20T12:28:54.772Z,44.70
2023-02-20T12:31:36.395Z,44.60
2023-02-20T12:34:15.173Z,44.70
2023-02-20T12:36:51.544Z,44.80
2023-02-20T12:39:29.290Z,44.80
2023-02-20T12:42:10.935Z,44.80
2023-02-20T12:44:58.560Z,45.20
2023-02-20T12:47:34.314Z,45.20
2023-02-20T12:50:14.538Z,45.30
2023-02-20T12:52:56.837Z,45.30
2023-02-20T12:55:32.761Z,45.30
2023-02-20T12:58:11.722Z,45.40
2023-02-20T13:00:48.189Z,45.40
2023-02-20T13:03:25.089Z,45.40
2023-02-20T13:05:58.288Z,45.30
2023-02-20T13:08:33.577Z,45.20
2023-02-20T13:11:11.878Z,45.30
2023-02-20T13:13:49.601Z,45.30
2023-02-20T13:16:24.945Z,45.40
2023-02-20T13:19:03.664Z,45.30
2023-02-20T13:21:36.931Z,45.40
2023-02-20T13:24:27.576Z,45.70
2023-02-20T13:27:06.700Z,46.20
2023-02-20T13:29:40.419Z,47.00
2023-02-20T13:32:23.634Z,47.40
2023-02-20T13:35:18.110Z,46.90
2023-02-20T13:37:51.917Z,47.10
2023-02-20T13:40:44.588Z,47.60
2023-02-20T13:43:26.930Z,47.40
2023-02-20T13:46:20.301Z,47.50
2023-02-20T13:48:54.499Z,47.90
2023-02-20T13:51:39.672Z,48.20
2023-02-20T13:54:15.352Z,47.70
2023-02-20T13:56:50.321Z,47.50
2023-02-20T13:59:23.630Z,47.40
2023-02-20T14:01:58.063Z,47.60
2023-02-20T14:04:31.311Z,47.50
2023-02-20T14:07:06.047Z,47.40
2023-02-20T14:09:39.134Z,47.10
2023-02-20T14:12:13.518Z,47.10
2023-02-20T14:14:46.984Z,47.30
2023-02-20T14:17:21.130Z,47.40
2023-02-20T14:20:08.602Z,47.60
2023-02-20T14:22:47.841Z,47.40
2023-02-20T14:25:25.454Z,47.30
2023-02-20T14:28:05.761Z,47.20
2023-02-20T14:30:39.149Z,47.00
2023-02-20T14:33:29.858Z,46.90
2023-02-20T14:36:19.250Z,46.70
2023-02-20T14:38:59.600Z,46.70
2023-02-20T14:41:33.153Z,46.30
2023-02-20T14:44:15.932Z,46.10
2023-02-20T14:46:52.640Z,46.00
2023-02-20T14:49:26.852Z,46.40
2023-02-20T14:52:06.820Z,46.50
2023-02-20T14:54:43.201Z,46.50
2023-02-20T14:57:16.932Z,46.50
2023-02-20T14:59:50.102Z,46.40
2023-02-20T15:02:33.711Z,46.20
2023-02-20T15:05:09.081Z,46.20
2023-02-20T15:07:42.285Z,46.30
2023-02-20T15:10:36.492Z,46.50
2023-02-20T15:13:10.666Z,46.40
2023-02-20T15:15:45.648Z,46.40
2023-02-20T15:18:31.412Z,46.50
2023-02-20T15:21:05.784Z,46.30
2023-02-20T15:23:39.371Z,46.10
2023-02-20T15:26:29.975Z,46.00
2023-02-20T15:29:14.134Z,46.00
2023-02-20T15:31:47.854Z,45.90
2023-02-20T15:34:23.906Z,45.90
2023-02-20T15:36:58.580Z,45.80
2023-02-20T15:39:31.769Z,46.00
2023-02-20T15:42:10.453Z,46.10
2023-02-20T15:44:43.679Z,46.40
2023-02-20T15:47:17.186Z,46.50
2023-02-20T15:49:50.265Z,46.30
2023-02-20T15:52:29.548Z,46.10
2023-02-20T15:55:03.285Z,46.20
2023-02-20T15:57:40.359Z,45.70
2023-02-20T16:00:19.865Z,45.70
2023-02-20T16:02:56.581Z,45.70
2023-02-20T16:05:29.858Z,45.60
2023-02-20T16:08:03.142Z,45.40
2023-02-20T16:10:36.421Z,45.60
2023-02-20T16:13:17.688Z,45.50
2023-02-20T16:15:51.956Z,45.50
2023-02-20T16:18:25.374Z,45.40
2023-02-20T16:20:59.349Z,45.50
2023-02-20T16:23:33.980Z,45.40
2023-02-20T16:26:07.137Z,45.40
2023-02-20T16:28:41.756Z,45.40
2023-02-20T16:31:14.957Z,45.40
2023-02-20T16:33:49.450Z,45.40
2023-02-20T16:36:25.031Z,45.30
2023-02-20T16:38:58.402Z,45.40
2023-02-20T16:41:32.356Z,45.40
2023-02-20T16:44:12.643Z,45.40
2023-02-20T16:46:45.795Z,45.40
2023-02-20T16:49:18.905Z,45.40
2023-02-20T16:52:01.201Z,45.30
2023-02-20T16:54:34.301Z,45.40
2023-02-20T16:57:07.381Z,45.40
2023-02-20T16:59:42.235Z,45.50
2023-02-20T17:02:16.496Z,45.50
2023-02-20T17:04:49.741Z,45.40
2023-02-20T17:07:22.928Z,45.70
2023-02-20T17:09:56.070Z,45.20
2023-02-20T17:12:31.076Z,45.20
2023-02-20T17:15:07.308Z,45.40
2023-02-20T17:17:40.419Z,45.70
2023-02-20T17:20:15.392Z,45.40
2023-02-20T17:22:55.637Z,45.20
2023-02-20T17:25:36.069Z,45.20
2023-02-20T17:28:09.216Z,45.10
2023-02-20T17:30:43.831Z,45.10
2023-02-20T17:33:16.967Z,45.20
2023-02-20T17:35:50.182Z,45.30
2023-02-20T17:38:24.366Z,45.30
2023-02-20T17:41:00.128Z,45.60
2023-02-20T17:43:35.177Z,45.90
2023-02-20T17:46:10.424Z,46.60
2023-02-20T17:48:43.607Z,48.20
2023-02-20T17:51:17.255Z,48.50
2023-02-20T17:53:50.395Z,48.50
2023-02-20T17:56:23.773Z,49.30
2023-02-20T17:58:56.974Z,49.70
2023-02-20T18:01:31.449Z,49.80
2023-02-20T18:04:06.000Z,49.40
2023-02-20T18:06:40.104Z,49.40
2023-02-20T18:09:15.254Z,49.50
2023-02-20T18:11:48.451Z,49.50
2023-02-20T18:14:21.717Z,50.50
2023-02-20T18:16:56.283Z,51.80
2023-02-20T18:19:29.465Z,51.70
2023-02-20T18:22:02.576Z,51.50
2023-02-20T18:24:36.587Z,51.40
2023-02-20T18:27:12.230Z,51.50
2023-02-20T18:29:45.421Z,51.60
2023-02-20T18:32:20.115Z,51.60
2023-02-20T18:34:53.275Z,51.50
2023-02-20T18:37:26.393Z,51.00
2023-02-20T18:39:59.632Z,51.00
2023-02-20T18:42:32.878Z,51.00
2023-02-20T18:45:06.243Z,50.90
2023-02-20T18:47:40.855Z,51.50
2023-02-20T18:50:15.494Z,51.10
2023-02-20T18:52:49.227Z,51.10
2023-02-20T18:55:23.186Z,51.00
2023-02-20T18:57:58.728Z,50.80
2023-02-20T19:00:34.502Z,50.80
2023-02-20T19:03:09.204Z,50.70
2023-02-20T19:05:42.469Z,50.60
2023-02-20T19:08:15.601Z,50.50
2023-02-20T19:10:48.811Z,50.40
2023-02-20T19:13:21.997Z,50.40
2023-02-20T19:15:55.107Z,50.20
2023-02-20T19:18:30.241Z,50.10
2023-02-20T19:21:04.356Z,50.00
2023-02-20T19:23:37.626Z,49.90
2023-02-20T19:26:10.905Z,50.00
2023-02-20T19:28:44.068Z,49.90
2023-02-20T19:31:17.567Z,49.70
2023-02-20T19:33:52.242Z,49.70
2023-02-20T19:36:25.424Z,49.70
2023-02-20T19:38:58.515Z,49.60
2023-02-20T19:41:33.899Z,49.50
2023-02-20T19:44:07.257Z,49.50
2023-02-20T19:46:40.379Z,49.50
2023-02-20T19:49:14.882Z,49.40
2023-02-20T19:51:48.163Z,49.40
2023-02-20T19:54:23.044Z,49.30
2023-02-20T19:56:57.148Z,49.40
2023-02-20T19:59:30.606Z,49.20
2023-02-20T20:02:04.249Z,49.10
2023-02-20T20:04:38.723Z,49.10
2023-02-20T20:07:11.883Z,49.20
2023-02-20T20:09:46.075Z,49.20
2023-02-20T20:12:36.420Z,49.10
2023-02-20T20:15:09.979Z,49.00
2023-02-20T20:17:43.091Z,48.90
2023-02-20T20:20:19.149Z,48.80
2023-02-20T20:22:53.055Z,48.90
2023-02-20T20:25:26.191Z,48.80
2023-02-20T20:28:02.136Z,48.80
2023-02-20T20:30:35.415Z,48.80
2023-02-20T20:33:09.251Z,48.70
2023-02-20T20:35:44.098Z,48.70
2023-02-20T20:38:17.360Z,48.70
2023-02-20T20:40:50.563Z,48.70
2023-02-20T20:43:23.638Z,48.60
2023-02-20T20:45:56.903Z,48.70
2023-02-20T20:48:30.068Z,48.60
2023-02-20T20:51:04.651Z,48.50
2023-02-20T20:53:38.107Z,48.90
2023-02-20T20:56:11.431Z,48.70
2023-02-20T20:58:45.470Z,48.40
2023-02-20T21:01:19.444Z,48.50
2023-02-20T21:03:52.666Z,48.40
2023-02-20T21:06:27.181Z,48.30
2023-02-20T21:09:00.419Z,48.30
2023-02-20T21:11:35.448Z,48.30
2023-02-20T21:14:08.852Z,48.40
2023-02-20T21:16:41.978Z,48.30
2023-02-20T21:19:15.165Z,48.30
2023-02-20T21:21:49.799Z,48.30
2023-02-20T21:24:23.147Z,48.30
2023-02-20T21:26:56.480Z,48.20
2023-02-20T21:29:29.658Z,48.00
2023-02-20T21:32:02.839Z,47.90
2023-02-20T21:34:36.017Z,47.90
2023-02-20T21:37:10.692Z,48.80
2023-02-20T21:39:43.784Z,48.10
2023-02-20T21:42:34.208Z,48.00
2023-02-20T21:45:07.622Z,48.10
2023-02-20T21:47:40.757Z,48.20
2023-02-20T21:50:14.872Z,48.20
2023-02-20T21:52:49.745Z,48.20
2023-02-20T21:55:22.908Z,48.30
2023-02-20T21:58:00.960Z,48.20
2023-02-20T22:00:32.984Z,48.40
2023-02-20T22:03:04.981Z,48.40
2023-02-20T22:05:36.965Z,48.60
2023-02-20T22:08:29.007Z,48.60
2023-02-20T22:11:19.652Z,48.90
2023-02-20T22:14:10.284Z,49.10
2023-02-20T22:17:01.169Z,49.30
2023-02-20T22:19:51.567Z,49.30
2023-02-20T22:22:42.202Z,49.50
2023-02-20T22:25:34.597Z,49.70
2023-02-20T22:28:25.346Z,49.80
2023-02-20T22:31:16.367Z,50.00
2023-02-20T22:34:07.408Z,50.10
2023-02-20T22:36:57.998Z,50.30
2023-02-20T22:39:48.644Z,50.20
2023-02-20T22:42:41.217Z,50.10
2023-02-20T22:45:32.066Z,50.10
2023-02-20T22:48:22.636Z,50.50
2023-02-20T22:51:13.466Z,50.60
2023-02-20T22:54:04.240Z,50.80
2023-02-20T22:56:54.882Z,51.10
2023-02-20T22:59:47.594Z,51.20
2023-02-20T23:02:38.199Z,51.30
2023-02-20T23:05:28.960Z,51.30
2023-02-20T23:08:19.456Z,51.20
2023-02-20T23:11:10.137Z,51.30
2023-02-20T23:14:00.816Z,51.30
2023-02-20T23:16:52.805Z,51.30
2023-02-20T23:19:43.369Z,51.50
2023-02-20T23:22:33.954Z,51.60
2023-02-20T23:25:24.479Z,51.50
2023-02-20T23:28:15.217Z,51.70
2023-02-20T23:31:06.015Z,51.80
2023-02-20T23:33:57.908Z,51.80
2023-02-20T23:36:50.486Z,52.00
2023-02-20T23:39:40.993Z,52.00
2023-02-20T23:42:31.724Z,52.00
2023-02-20T23:45:22.916Z,52.10
2023-02-20T23:48:13.516Z,52.30
2023-02-20T23:51:05.530Z,52.10
2023-02-20T23:53:56.239Z,52.70
2023-02-20T23:56:46.728Z,52.50
2023-02-20T23:59:37.397Z,52.60
